KGYY/GYY METAR and TAF weather

Enter ICAO airport designator
Station Type Date Time Source
KGYY METAR 2022/06/27 08:55 UTC NOAA

KGYY 270855Z AUTO 25003KT 10SM CLR 14/11 A3017 RMK AO2 T01390105


Station Type Date Time Source
KGYY Decoded METAR 2022/06/27 08:55 UTC NOAA

Gary Regional, IN, United States (KGYY) 41-37N 087-25W
Jun 27, 2022 - 04:55 AM EDT / 2022.06.27 0855 UTC
Wind: from the WSW (250 degrees) at 3 MPH (3 KT):0
Visibility: 10 mile(s):0
Sky conditions: clear
Temperature: 57.0 F (13.9 C)
Dew Point: 50.9 F (10.5 C)
Relative Humidity: 79%
Pressure (altimeter): 30.17 in. Hg (1021 hPa)
ob: KGYY 270855Z AUTO 25003KT 10SM CLR 14/11 A3017 RMK AO2 T01390105
cycle: 9

Station Type Date Time Source
KGYY TAF 2022/06/27 09:57 UTC NOAA

TAF
AMD KGYY 270855Z 2709/2806 29008KT P6SM SKC
FM271400 35012G20KT P6SM FEW050
FM271600 05011KT P6SM FEW250

Example: see airport list